Time;durP1;ratioP1;P1;durP2;ratioP2;P2;SDS_P1;SDS_P2;PMS_P1;PMS_P2;Temp;Humidity;BMP_temperature;BMP_pressure;BME280_temperature;BME280_humidity;BME280_pressure;Samples;Min_cycle;Max_cycle;Signal;HPM_P1;HPM_P2
2022/12/17 13:06:48;;;;;;;39.27;25.27;;;;;;;0.23;100.00;97041.44;4898085;28;105245;-60
2022/12/17 13:09:46;;;;;;;39.83;26.57;;;;;;;0.31;100.00;97045.84;4914173;28;102451;-60
2022/12/17 13:12:41;;;;;;;37.93;26.13;;;;;;;0.89;100.00;97040.91;4913028;28;102611;-60
2022/12/17 13:15:24;;;;;;;41.13;26.10;;;;;;;1.02;100.00;97041.13;4893962;28;101900;-60
2022/12/17 13:18:19;;;;;;;35.47;24.10;;;;;;;0.13;100.00;97047.88;4914529;28;102522;-60
2022/12/17 13:20:57;;;;;;;33.03;23.73;;;;;;;0.29;100.00;97050.44;4896674;28;105849;-60
2022/12/17 13:23:33;;;;;;;33.33;23.67;;;;;;;0.18;100.00;97048.19;4896648;28;101832;-60
2022/12/17 13:26:22;;;;;;;36.90;24.03;;;;;;;0.76;100.00;97051.94;4896475;28;105551;-60
2022/12/17 13:29:02;;;;;;;35.07;23.17;;;;;;;1.06;100.00;97056.34;4900629;28;102790;-60
2022/12/17 13:31:33;;;;;;;34.47;24.70;;;;;;;1.32;100.00;97062.00;4917303;28;101796;-60
2022/12/17 13:34:10;;;;;;;35.40;24.60;;;;;;;1.18;100.00;97064.56;4913193;28;102783;-60
2022/12/17 13:36:48;;;;;;;37.13;26.33;;;;;;;1.49;100.00;97073.16;4895758;28;101881;-61
2022/12/17 13:39:29;;;;;;;36.13;25.13;;;;;;;1.28;100.00;97075.63;4913881;28;102277;-60
2022/12/17 13:41:56;;;;;;;34.90;23.77;;;;;;;0.41;100.00;97077.84;4895742;28;105791;-60
2022/12/17 13:44:25;;;;;;;33.60;23.90;;;;;;;0.63;100.00;97079.69;4913590;28;101838;-60
2022/12/17 13:46:54;;;;;;;36.20;24.23;;;;;;;1.09;100.00;97082.16;4913732;28;102888;-61
2022/12/17 13:49:22;;;;;;;38.50;25.33;;;;;;;1.47;100.00;97089.06;4912947;28;103727;-60
2022/12/17 13:52:00;;;;;;;32.70;22.97;;;;;;;1.45;100.00;97083.19;4913539;28;101770;-60
2022/12/17 13:54:27;;;;;;;33.13;23.00;;;;;;;1.19;100.00;97092.41;4899141;28;105724;-60
2022/12/17 13:56:54;;;;;;;30.53;22.33;;;;;;;1.40;100.00;97093.38;4895968;28;102118;-60
2022/12/17 13:59:24;;;;;;;33.37;23.83;;;;;;;1.74;100.00;97101.59;4913457;28;102630;-60
2022/12/17 14:01:52;;;;;;;32.93;24.40;;;;;;;1.60;100.00;97101.56;4912760;28;103519;-60
2022/12/17 14:04:22;;;;;;;30.07;22.57;;;;;;;1.13;100.00;97099.16;4895762;28;102145;-60
2022/12/17 14:06:51;;;;;;;33.47;23.67;;;;;;;1.03;100.00;97102.97;4913367;28;102587;-60
2022/12/17 14:09:20;;;;;;;30.93;23.60;;;;;;;0.77;100.00;97107.75;4895425;28;105484;-60
2022/12/17 14:14:39;;;;;;;32.63;22.63;;;;;;;0.56;100.00;97115.38;4895840;28;105306;-60
2022/12/17 14:17:06;;;;;;;35.40;24.83;;;;;;;0.29;100.00;97113.19;4898510;28;105359;-60
2022/12/17 14:19:34;;;;;;;33.53;23.23;;;;;;;0.04;100.00;97119.47;4895606;28;105567;-60
2022/12/17 14:22:02;;;;;;;32.40;21.57;;;;;;;-0.23;100.00;97121.69;4895277;28;105928;-60
2022/12/17 14:24:30;;;;;;;33.80;22.53;;;;;;;-0.36;100.00;97127.41;4895290;28;101849;-60
2022/12/17 14:27:00;;;;;;;33.57;23.57;;;;;;;-0.50;100.00;97135.88;4913062;28;102419;-60
2022/12/17 14:29:29;;;;;;;33.53;23.83;;;;;;;-0.69;100.00;97138.00;4912431;28;103186;-60
2022/12/17 14:31:58;;;;;;;36.90;25.07;;;;;;;-0.80;100.00;97144.38;4895541;28;101973;-61
2022/12/17 14:34:25;;;;;;;38.43;25.70;;;;;;;-0.76;100.00;97143.09;4912727;28;102030;-60
2022/12/17 14:36:56;;;;;;;36.67;25.90;;;;;;;-1.04;100.00;97152.16;4918672;28;103109;-61
2022/12/17 14:39:26;;;;;;;38.53;26.13;;;;;;;-0.99;100.00;97155.09;4935470;28;101730;-60
2022/12/17 14:44:50;;;;;;;41.83;25.80;;;;;;;-0.76;100.00;97152.72;4932202;28;101673;-60
2022/12/17 14:47:20;;;;;;;41.83;24.93;;;;;;;-0.98;100.00;97159.38;4932130;28;102438;-60
2022/12/17 14:49:53;;;;;;;43.00;26.30;;;;;;;-1.18;100.00;97168.44;4913710;28;105748;-60
2022/12/17 14:52:26;;;;;;;51.57;30.40;;;;;;;-1.24;100.00;97174.31;4932195;28;101764;-60
2022/12/17 14:54:55;;;;;;;55.67;31.33;;;;;;;-1.16;100.00;97173.53;4932166;28;102375;-60
2022/12/17 14:57:23;;;;;;;57.53;33.20;;;;;;;-1.23;100.00;97177.72;4913456;28;105778;-60
2022/12/17 14:59:51;;;;;;;52.37;31.87;;;;;;;-1.25;100.00;97183.13;4914358;28;101910;-60
2022/12/17 15:02:24;;;;;;;45.73;28.43;;;;;;;-1.43;100.00;97171.16;4934570;28;102578;-61
2022/12/17 15:04:53;;;;;;;49.47;29.30;;;;;;;-1.41;100.00;97177.84;4931878;28;101733;-60
2022/12/17 15:07:25;;;;;;;44.03;28.63;;;;;;;-1.51;100.00;97179.75;4914203;28;104832;-60
2022/12/17 15:09:53;;;;;;;43.37;27.77;;;;;;;-1.46;100.00;97187.94;4931289;28;102617;-60
2022/12/17 15:12:23;;;;;;;43.73;27.13;;;;;;;-1.26;100.00;97185.88;4931722;28;101869;-60
2022/12/17 15:14:50;;;;;;;47.13;28.80;;;;;;;-1.32;100.00;97189.91;4914348;28;105195;-60
2022/12/17 15:17:17;;;;;;;45.03;28.70;;;;;;;-1.32;100.00;97189.13;4913435;28;105847;-60
2022/12/17 15:19:44;;;;;;;51.33;30.63;;;;;;;-1.34;100.00;97194.50;4914035;28;102004;-60
2022/12/17 15:22:17;;;;;;;53.57;31.47;;;;;;;-1.42;100.00;97210.09;4934147;28;102355;-60
2022/12/17 15:24:45;;;;;;;52.80;32.63;;;;;;;-1.43;100.00;97213.69;4931482;28;101825;-60
2022/12/17 15:27:15;;;;;;;46.47;28.20;;;;;;;-1.53;100.00;97210.38;4913857;28;105204;-60
2022/12/17 15:29:43;;;;;;;43.77;27.50;;;;;;;-1.60;100.00;97211.16;4912474;28;105939;-60
2022/12/17 15:32:17;;;;;;;44.67;27.77;;;;;;;-1.51;100.00;97216.25;4913742;28;102106;-60
2022/12/17 15:34:45;;;;;;;46.33;28.83;;;;;;;-1.27;100.00;97213.75;4913817;28;105267;-60
2022/12/17 15:37:11;;;;;;;40.60;27.40;;;;;;;-1.32;100.00;97207.38;4930025;28;102442;-60
2022/12/17 15:39:38;;;;;;;42.80;27.93;;;;;;;-1.53;100.00;97220.78;4913763;28;102044;-60
2022/12/17 15:44:52;;;;;;;38.90;25.57;;;;;;;-1.68;100.00;97219.75;4934254;28;103220;-60
2022/12/17 15:47:19;;;;;;;37.23;24.60;;;;;;;-1.60;100.00;97214.56;4930836;28;102371;-60
2022/12/17 15:49:46;;;;;;;36.63;23.83;;;;;;;-1.50;100.00;97215.28;4913116;28;105697;-60
2022/12/17 15:52:14;;;;;;;36.10;23.47;;;;;;;-1.51;100.00;97225.88;4913593;28;101938;-60
2022/12/17 15:54:41;;;;;;;38.63;25.30;;;;;;;-1.61;100.00;97222.53;4913349;28;105688;-60
2022/12/17 15:57:08;;;;;;;39.17;25.13;;;;;;;-1.48;100.00;97223.75;4930592;28;102904;-60
2022/12/17 15:59:35;;;;;;;36.10;24.70;;;;;;;-1.35;100.00;97225.94;4913467;28;101879;-60
2022/12/17 16:02:03;;;;;;;39.70;25.50;;;;;;;-1.27;100.00;97228.59;4930734;28;102334;-60
2022/12/17 16:04:30;;;;;;;37.60;25.80;;;;;;;-1.32;100.00;97225.66;4912922;28;105456;-60
2022/12/17 16:06:56;;;;;;;43.13;27.83;;;;;;;-1.32;100.00;97226.44;4916425;28;101822;-60
2022/12/17 16:09:25;;;;;;;41.60;27.53;;;;;;;-1.27;100.00;97224.19;4930370;28;103423;-60
2022/12/17 16:11:54;;;;;;;37.87;24.73;;;;;;;-1.23;100.00;97230.72;4913247;28;101847;-60
2022/12/17 16:14:21;;;;;;;43.90;25.80;;;;;;;-1.31;100.00;97228.06;4930635;28;102322;-60
2022/12/17 16:16:48;;;;;;;42.40;25.87;;;;;;;-1.42;100.00;97217.13;4912463;28;105340;-60
2022/12/17 16:19:16;;;;;;;38.20;24.90;;;;;;;-1.35;100.00;97215.50;4930683;28;101863;-60
2022/12/17 16:21:43;;;;;;;36.00;24.40;;;;;;;-1.42;100.00;97223.13;4930426;28;102559;-60
2022/12/17 16:24:10;;;;;;;40.53;25.80;;;;;;;-1.32;100.00;97225.66;4912509;28;105517;-60
2022/12/17 16:26:38;;;;;;;38.43;25.87;;;;;;;-1.53;100.00;97231.22;4913006;28;101795;-60
2022/12/17 16:29:05;;;;;;;40.07;25.73;;;;;;;-1.54;100.00;97232.22;4915395;28;105371;-60
2022/12/17 16:31:32;;;;;;;39.90;26.20;;;;;;;-1.51;100.00;97237.13;4930663;28;101845;-60
2022/12/17 16:33:59;;;;;;;42.90;28.53;;;;;;;-1.38;100.00;97242.72;4912802;28;105721;-60
2022/12/17 16:36:27;;;;;;;40.50;26.37;;;;;;;-1.50;100.00;97238.75;4929299;28;102574;-60
2022/12/17 16:38:55;;;;;;;43.27;28.07;;;;;;;-1.61;100.00;97236.41;4912938;28;101835;-60
2022/12/17 16:41:23;;;;;;;43.83;28.37;;;;;;;-1.41;100.00;97243.06;4930524;28;102404;-60
2022/12/17 16:43:50;;;;;;;42.00;27.50;;;;;;;-1.41;100.00;97240.44;4929692;28;103045;-60
2022/12/17 16:46:29;;;;;;;35.80;23.73;;;;;;;-1.67;100.00;97246.63;4930302;28;101865;-60
2022/12/17 16:48:58;;;;;;;36.33;23.23;;;;;;;-1.41;100.00;97252.66;4930566;28;102894;-60
2022/12/17 16:51:28;;;;;;;35.90;22.93;;;;;;;-1.45;100.00;97253.94;4933119;28;103043;-60
2022/12/17 16:53:55;;;;;;;34.80;22.40;;;;;;;-1.51;100.00;97246.72;4912741;28;104832;-60
2022/12/17 16:56:24;;;;;;;36.80;23.87;;;;;;;-1.51;100.00;97239.72;4912173;28;105870;-60
2022/12/17 16:58:51;;;;;;;33.37;22.43;;;;;;;-1.53;100.00;97239.06;4912392;28;101863;-60
2022/12/17 17:01:19;;;;;;;33.03;22.10;;;;;;;-1.58;100.00;97245.72;4930039;28;102313;-60
2022/12/17 17:03:46;;;;;;;35.03;24.23;;;;;;;-1.57;100.00;97240.34;4929772;28;103183;-60
2022/12/17 17:06:13;;;;;;;33.57;22.73;;;;;;;-1.56;100.00;97239.38;4912567;28;101884;-60
2022/12/17 17:08:42;;;;;;;35.40;23.57;;;;;;;-1.48;100.00;97244.63;4930716;28;102383;-60
2022/12/17 17:11:12;;;;;;;35.60;24.03;;;;;;;-1.48;100.00;97243.81;4929546;28;102801;-60
2022/12/17 17:13:39;;;;;;;35.20;23.47;;;;;;;-1.43;100.00;97244.97;4915854;28;101706;-60
2022/12/17 17:16:07;;;;;;;38.97;24.60;;;;;;;-1.40;100.00;97242.06;4913583;28;105919;-60
2022/12/17 17:18:36;;;;;;;40.80;25.10;;;;;;;-1.22;100.00;97248.00;4912365;28;101983;-60
2022/12/17 17:21:18;;;;;;;40.57;25.53;;;;;;;-1.32;100.00;97251.72;4912556;28;105576;-60
2022/12/17 17:23:48;;;;;;;42.50;27.40;;;;;;;-1.16;100.00;97249.19;4912626;28;105363;-60
2022/12/17 17:26:15;;;;;;;47.13;30.43;;;;;;;-1.34;100.00;97251.03;4914427;28;101941;-60
2022/12/17 17:28:44;;;;;;;43.13;27.37;;;;;;;-1.34;100.00;97258.88;4930407;28;102649;-60
2022/12/17 17:31:13;;;;;;;42.43;26.53;;;;;;;-1.42;100.00;97254.44;4913147;28;105074;-60
2022/12/17 17:33:43;;;;;;;40.50;26.77;;;;;;;-1.38;100.00;97247.13;4917760;28;102050;-60
2022/12/17 17:36:12;;;;;;;41.53;28.00;;;;;;;-1.33;100.00;97256.13;4912007;28;103990;-60
2022/12/17 17:38:40;;;;;;;43.63;28.07;;;;;;;-1.38;100.00;97263.59;4931267;28;101754;-60
2022/12/17 17:41:11;;;;;;;43.90;28.33;;;;;;;-1.43;100.00;97255.41;4911999;28;105225;-60
2022/12/17 17:43:38;;;;;;;39.10;25.93;;;;;;;-1.50;100.00;97259.63;4912013;28;105216;-60
2022/12/17 17:46:06;;;;;;;37.80;24.77;;;;;;;-1.55;100.00;97266.25;4913169;28;102289;-60
2022/12/17 17:48:33;;;;;;;46.00;30.47;;;;;;;-1.49;100.00;97261.25;4911897;28;103947;-60
2022/12/17 17:51:01;;;;;;;48.07;31.03;;;;;;;-1.34;100.00;97270.13;4911314;28;106034;-60
2022/12/17 17:53:29;;;;;;;48.87;31.27;;;;;;;-1.33;100.00;97269.16;4914746;28;102019;-60
2022/12/17 17:56:02;;;;;;;39.97;26.10;;;;;;;-1.40;100.00;97262.94;4918372;28;103973;-60
2022/12/17 17:58:30;;;;;;;35.53;24.50;;;;;;;-1.33;100.00;97265.72;4932638;28;101766;-60
2022/12/17 18:00:57;;;;;;;38.70;26.33;;;;;;;-1.21;100.00;97270.53;4915695;28;105151;-60
2022/12/17 18:03:24;;;;;;;36.63;25.10;;;;;;;-1.19;100.00;97268.59;4932708;28;102580;-60
2022/12/17 18:05:50;;;;;;;39.33;27.10;;;;;;;-1.19;100.00;97286.84;4914996;28;101815;-60
2022/12/17 18:08:17;;;;;;;40.43;27.17;;;;;;;-1.05;100.00;97291.47;4932622;28;102934;-60
2022/12/17 18:10:55;;;;;;;40.03;26.83;;;;;;;-1.35;100.00;97296.38;4914562;28;105838;-60
2022/12/17 18:16:07;;;;;;;50.13;30.30;;;;;;;-1.33;100.00;97297.03;4914996;28;104853;-60
2022/12/17 18:18:34;;;;;;;53.13;30.77;;;;;;;-1.57;100.00;97292.50;4935279;28;103144;-60
2022/12/17 18:21:07;;;;;;;46.47;30.00;;;;;;;-1.70;100.00;97293.88;4932372;28;102595;-60
2022/12/17 18:23:34;;;;;;;51.20;31.90;;;;;;;-1.87;100.00;97292.94;4914325;28;105354;-60
2022/12/17 18:26:06;;;;;;;47.10;29.17;;;;;;;-1.96;100.00;97290.44;4914809;28;102015;-60
2022/12/17 18:28:33;;;;;;;48.03;31.00;;;;;;;-1.97;100.00;97291.41;4931964;28;102597;-60
2022/12/17 18:31:08;;;;;;;47.80;30.23;;;;;;;-1.84;100.00;97303.06;4931721;28;102555;-60
2022/12/17 18:33:36;;;;;;;50.83;31.13;;;;;;;-1.77;100.00;97304.09;4914841;28;101863;-60
2022/12/17 18:36:07;;;;;;;52.13;32.00;;;;;;;-1.82;100.00;97301.13;4932196;28;102684;-61
2022/12/17 18:38:34;;;;;;;53.47;31.93;;;;;;;-1.80;100.00;97301.78;4931896;28;102574;-60
2022/12/17 18:43:21;;;;;;;57.40;33.87;;;;;;;-1.74;100.00;97308.19;4935571;28;101755;-60
2022/12/17 18:43:51;;;;;;;50.37;31.07;;;;;;;-1.71;100.00;97300.88;4913543;28;105100;-60
2022/12/17 18:46:20;;;;;;;47.27;30.67;;;;;;;-1.70;100.00;97305.13;4932298;28;101750;-60
2022/12/17 18:48:47;;;;;;;46.40;29.33;;;;;;;-1.57;100.00;97308.16;4914302;28;105682;-60
2022/12/17 18:51:14;;;;;;;46.10;30.27;;;;;;;-1.37;100.00;97314.78;4914124;28;105314;-60
2022/12/17 18:53:41;;;;;;;45.67;30.10;;;;;;;-1.40;100.00;97309.06;4914541;28;101889;-60
2022/12/17 18:56:09;;;;;;;48.17;31.07;;;;;;;-1.45;100.00;97309.53;4932007;28;102567;-60
2022/12/17 18:58:37;;;;;;;49.13;31.33;;;;;;;-1.65;100.00;97308.09;4913499;28;106182;-60
2022/12/17 19:01:04;;;;;;;48.17;31.13;;;;;;;-1.60;100.00;97299.84;4932073;28;101805;-60
2022/12/17 19:03:33;;;;;;;45.90;30.23;;;;;;;-1.59;100.00;97312.69;4916081;28;105250;-60
2022/12/17 19:06:05;;;;;;;48.40;30.87;;;;;;;-1.44;100.00;97321.59;4931628;28;101709;-60
2022/12/17 19:08:35;;;;;;;49.27;30.77;;;;;;;-1.42;100.00;97316.22;4931927;28;102018;-60
2022/12/17 19:11:05;;;;;;;42.77;26.73;;;;;;;-1.50;100.00;97316.16;4931050;28;102690;-60
2022/12/17 19:13:32;;;;;;;40.03;26.27;;;;;;;-1.53;100.00;97321.72;4914095;28;102344;-60
2022/12/17 19:16:05;;;;;;;42.87;27.60;;;;;;;-1.57;100.00;97315.16;4931938;28;102301;-60
2022/12/17 19:18:33;;;;;;;38.47;25.33;;;;;;;-1.75;100.00;97322.22;4913939;28;105532;-60
2022/12/17 19:21:01;;;;;;;37.77;24.73;;;;;;;-1.72;100.00;97322.72;4907756;28;102171;-61
2022/12/17 19:23:31;;;;;;;41.27;27.47;;;;;;;-1.51;100.00;97327.56;4912259;28;102409;-63
2022/12/17 19:26:05;;;;;;;44.40;28.33;;;;;;;-1.43;100.00;97330.25;4896944;28;101986;-61
2022/12/17 19:28:32;;;;;;;48.13;30.20;;;;;;;-1.65;100.00;97334.16;4912307;28;102365;-66
2022/12/17 19:31:00;;;;;;;43.70;29.17;;;;;;;-1.65;100.00;97334.16;4894221;28;105633;-63
2022/12/17 19:33:28;;;;;;;43.87;28.57;;;;;;;-1.74;100.00;97329.88;4894786;28;101982;-63
2022/12/17 19:36:08;;;;;;;45.00;30.43;;;;;;;-1.60;100.00;97334.53;4894148;28;105202;-64
2022/12/17 19:38:36;;;;;;;41.53;25.90;;;;;;;-1.41;100.00;97336.13;4911604;28;104131;-63
2022/12/17 19:41:05;;;;;;;39.00;24.70;;;;;;;-1.45;100.00;97335.63;4912074;28;101856;-63
2022/12/17 19:43:32;;;;;;;37.13;24.27;;;;;;;-1.36;100.00;97331.28;4912252;28;102592;-63
2022/12/17 19:46:05;;;;;;;44.57;27.60;;;;;;;-1.52;100.00;97334.59;4897381;28;106165;-64
2022/12/17 19:48:33;;;;;;;40.67;26.90;;;;;;;-1.66;100.00;97332.53;4894378;28;103966;-63
2022/12/17 19:51:01;;;;;;;41.93;27.47;;;;;;;-1.56;100.00;97335.03;4894083;28;105803;-63
2022/12/17 19:53:30;;;;;;;37.77;25.73;;;;;;;-1.39;100.00;97340.22;4911801;28;101801;-63
2022/12/17 19:56:08;;;;;;;39.07;27.47;;;;;;;-1.51;100.00;97338.84;4911829;28;102862;-63
2022/12/17 19:58:35;;;;;;;44.50;28.20;;;;;;;-1.49;100.00;97344.72;4893601;28;105710;-64
2022/12/17 20:01:06;;;;;;;42.40;27.63;;;;;;;-1.32;100.00;97346.44;4894242;28;101973;-63
2022/12/17 20:03:35;;;;;;;47.47;30.67;;;;;;;-1.25;100.00;97349.28;4894436;28;104966;-64
2022/12/17 20:06:05;;;;;;;45.13;28.83;;;;;;;-1.50;100.00;97352.69;4912445;28;103270;-63
2022/12/17 20:08:33;;;;;;;41.37;27.37;;;;;;;-1.58;100.00;97355.25;4915791;28;101900;-64
2022/12/17 20:11:02;;;;;;;42.90;27.33;;;;;;;-1.53;100.00;97361.63;4893960;28;105726;-64
2022/12/17 20:13:29;;;;;;;41.20;27.57;;;;;;;-1.46;100.00;97356.63;4912023;28;101805;-63
2022/12/17 20:16:00;;;;;;;41.60;27.63;;;;;;;-1.53;100.00;97364.22;4893495;28;105267;-64
2022/12/17 20:18:28;;;;;;;37.73;25.40;;;;;;;-1.50;100.00;97361.34;4911091;28;102575;-64
2022/12/17 20:21:03;;;;;;;45.23;29.13;;;;;;;-1.69;100.00;97355.50;4875428;28;102113;-63
2022/12/17 20:23:45;;;;;;;43.53;28.83;;;;;;;-1.56;100.00;97364.56;4875633;28;104721;-64
2022/12/17 20:26:12;;;;;;;40.73;26.77;;;;;;;-1.53;100.00;97361.63;4874606;28;105149;-63
2022/12/17 20:28:40;;;;;;;36.47;24.17;;;;;;;-1.53;100.00;97361.63;4892413;28;101930;-63
2022/12/17 20:31:07;;;;;;;43.80;28.90;;;;;;;-1.59;100.00;97358.84;4878207;28;105839;-64
2022/12/17 20:33:41;;;;;;;41.80;28.43;;;;;;;-1.50;100.00;97363.13;4875252;28;101890;-64
2022/12/17 20:36:12;;;;;;;42.57;27.13;;;;;;;-1.48;100.00;97369.81;4874646;28;105524;-64
2022/12/17 20:38:40;;;;;;;51.67;30.33;;;;;;;-1.51;100.00;97362.31;4874562;28;105935;-64
2022/12/17 20:41:12;;;;;;;40.93;27.03;;;;;;;-1.69;100.00;97358.09;4874994;28;101888;-64
2022/12/17 20:43:39;;;;;;;36.00;22.87;;;;;;;-1.98;100.00;97362.75;4892093;28;102702;-63
2022/12/17 20:46:08;;;;;;;35.97;23.13;;;;;;;-1.84;100.00;97368.25;4891774;28;102827;-64
2022/12/17 20:48:35;;;;;;;38.13;23.33;;;;;;;-1.75;100.00;97372.53;4892621;28;101948;-64
2022/12/17 20:51:06;;;;;;;34.60;21.90;;;;;;;-1.76;100.00;97372.72;4892216;28;102543;-64
2022/12/17 20:53:39;;;;;;;37.47;23.17;;;;;;;-1.75;100.00;97375.16;4894804;28;102865;-70
2022/12/17 20:56:09;;;;;;;36.97;23.10;;;;;;;-1.66;100.00;97376.84;4890466;28;102365;-72
2022/12/17 20:58:36;;;;;;;35.50;23.10;;;;;;;-1.73;100.00;97381.06;4871760;28;105813;-71
2022/12/17 21:01:06;;;;;;;35.03;22.83;;;;;;;-1.65;100.00;97380.31;4889824;28;101968;-71
2022/12/17 21:03:33;;;;;;;34.70;22.17;;;;;;;-1.61;100.00;97379.00;4872419;28;105621;-71
2022/12/17 21:06:06;;;;;;;34.07;22.03;;;;;;;-1.73;100.00;97378.44;4871679;28;104688;-72
2022/12/17 21:08:33;;;;;;;34.63;21.27;;;;;;;-2.14;100.00;97373.81;4889792;28;103459;-71
2022/12/17 21:11:02;;;;;;;32.83;20.33;;;;;;;-2.00;100.00;97373.31;4891765;28;102430;-71
2022/12/17 21:13:29;;;;;;;33.03;19.93;;;;;;;-1.93;100.00;97376.94;4873824;28;105573;-71
2022/12/17 21:15:57;;;;;;;32.73;20.60;;;;;;;-1.93;100.00;97374.34;4877498;28;101973;-71
2022/12/17 21:18:24;;;;;;;33.13;21.30;;;;;;;-1.77;100.00;97377.09;4873630;28;105446;-71
2022/12/17 21:20:56;;;;;;;37.23;23.07;;;;;;;-1.75;100.00;97379.56;4874170;28;101874;-71
2022/12/17 21:23:24;;;;;;;38.27;21.43;;;;;;;-1.99;100.00;97385.38;4874211;28;105546;-71
2022/12/17 21:26:08;;;;;;;37.27;21.80;;;;;;;-2.13;100.00;97385.88;4873809;28;105527;-72
2022/12/17 21:28:38;;;;;;;34.63;20.87;;;;;;;-2.19;100.00;97390.88;4890672;28;102025;-71
2022/12/17 21:31:05;;;;;;;35.67;21.77;;;;;;;-2.42;100.00;97390.47;4894897;28;102323;-72
2022/12/17 21:33:32;;;;;;;33.70;20.03;;;;;;;-2.31;100.00;97395.47;4894407;28;102671;-71
2022/12/17 21:36:00;;;;;;;33.50;19.80;;;;;;;-2.55;100.00;97390.00;4880545;28;102109;-72
2022/12/17 21:38:28;;;;;;;32.13;20.47;;;;;;;-2.37;100.00;97390.00;4893838;28;103146;-72
2022/12/17 21:40:56;;;;;;;33.37;20.30;;;;;;;-2.29;100.00;97398.72;4877271;28;102027;-72
2022/12/17 21:43:28;;;;;;;33.83;20.10;;;;;;;-2.18;100.00;97392.50;4894637;28;102875;-72
2022/12/17 21:45:57;;;;;;;33.50;21.53;;;;;;;-2.03;100.00;97394.44;4876911;28;105884;-72
2022/12/17 21:48:24;;;;;;;33.73;21.57;;;;;;;-1.97;100.00;97396.44;4876988;28;101867;-72
2022/12/17 21:50:51;;;;;;;33.80;20.20;;;;;;;-2.10;100.00;97396.00;4876804;28;105520;-72
2022/12/17 21:53:18;;;;;;;34.23;21.47;;;;;;;-2.13;100.00;97396.28;4894060;28;102870;-71
2022/12/17 21:55:45;;;;;;;34.00;20.53;;;;;;;-1.98;100.00;97400.03;4876910;28;101793;-72
2022/12/17 21:58:12;;;;;;;37.50;20.03;;;;;;;-1.94;100.00;97385.75;4896705;28;102307;-72
2022/12/17 22:00:42;;;;;;;32.30;20.40;;;;;;;-2.01;100.00;97384.72;4876984;28;101901;-72
2022/12/17 22:03:09;;;;;;;30.93;19.03;;;;;;;-1.91;100.00;97388.03;4877150;28;105591;-72
2022/12/17 22:05:37;;;;;;;33.97;19.87;;;;;;;-2.02;100.00;97392.66;4893220;28;102526;-72
2022/12/17 22:08:05;;;;;;;31.97;19.73;;;;;;;-2.23;100.00;97400.78;4876926;28;101955;-72
2022/12/17 22:10:31;;;;;;;31.83;19.23;;;;;;;-2.14;100.00;97388.66;4894122;28;102313;-72
2022/12/17 22:15:44;;;;;;;32.53;18.97;;;;;;;-1.97;100.00;97386.03;4876792;28;101878;-72
2022/12/17 22:18:10;;;;;;;34.63;19.37;;;;;;;-2.03;100.00;97385.81;4894207;28;102635;-72
2022/12/17 22:20:37;;;;;;;33.27;19.53;;;;;;;-2.18;100.00;97390.69;4879568;28;105177;-72
2022/12/17 22:23:04;;;;;;;33.30;20.07;;;;;;;-2.36;100.00;97394.28;4876683;28;105040;-72
2022/12/17 22:25:31;;;;;;;38.07;22.10;;;;;;;-2.49;100.00;97397.22;4876517;28;105085;-72
2022/12/17 22:27:59;;;;;;;41.27;22.40;;;;;;;-2.39;100.00;97394.56;4877104;28;101924;-72
2022/12/17 22:33:12;;;;;;;52.97;27.80;;;;;;;-2.57;100.00;97391.09;4876204;28;105817;-72
2022/12/17 22:35:41;;;;;;;54.07;29.40;;;;;;;-2.64;100.00;97387.41;4876785;28;101900;-72
2022/12/17 22:38:09;;;;;;;54.80;28.70;;;;;;;-2.74;100.00;97390.06;4876809;28;104830;-72
2022/12/17 22:40:38;;;;;;;51.63;28.27;;;;;;;-2.70;100.00;97394.03;4876398;28;103804;-72
2022/12/17 22:46:03;;;;;;;46.80;27.00;;;;;;;-2.51;100.00;97401.72;4802183;29;105499;-72
2022/12/17 22:48:32;;;;;;;45.70;24.97;;;;;;;-2.33;100.00;97402.63;4818963;29;102056;-72
2022/12/17 22:51:08;;;;;;;44.87;24.73;;;;;;;-2.24;100.00;97395.69;4803964;29;105585;-72
2022/12/17 22:53:35;;;;;;;45.90;25.83;;;;;;;-2.16;100.00;97390.56;4818541;29;103033;-71
2022/12/17 22:56:04;;;;;;;45.07;25.63;;;;;;;-2.23;100.00;97392.97;4785866;29;101968;-72
2022/12/17 22:58:32;;;;;;;44.77;24.80;;;;;;;-2.21;100.00;97391.00;4800797;29;105862;-72
2022/12/17 23:00:59;;;;;;;39.23;23.70;;;;;;;-2.20;100.00;97400.47;4816047;29;103395;-72
2022/12/17 23:03:26;;;;;;;42.80;23.90;;;;;;;-2.18;100.00;97397.72;4800856;29;102423;-72
2022/12/17 23:06:06;;;;;;;40.93;23.90;;;;;;;-2.25;100.00;97401.88;4819414;29;102353;-72
2022/12/17 23:08:33;;;;;;;42.23;23.43;;;;;;;-2.22;100.00;97402.41;4801085;29;101931;-72
2022/12/17 23:11:06;;;;;;;41.03;23.60;;;;;;;-2.19;100.00;97396.88;4801798;29;104894;-72
2022/12/17 23:13:33;;;;;;;41.03;22.80;;;;;;;-2.26;100.00;97405.44;4816325;29;105775;-72
2022/12/17 23:16:01;;;;;;;38.00;21.57;;;;;;;-1.98;100.00;97402.63;4816437;29;102120;-72
2022/12/17 23:18:28;;;;;;;37.93;23.20;;;;;;;-2.14;100.00;97415.50;4800947;29;105396;-72
2022/12/17 23:20:56;;;;;;;43.60;24.90;;;;;;;-2.18;100.00;97401.13;4875600;28;105241;-72
2022/12/17 23:23:23;;;;;;;42.00;24.80;;;;;;;-2.28;100.00;97403.00;4877161;28;101963;-72
2022/12/17 23:25:50;;;;;;;39.83;23.17;;;;;;;-2.27;100.00;97404.63;4894408;28;102345;-72
2022/12/17 23:28:17;;;;;;;41.47;24.23;;;;;;;-2.25;100.00;97396.69;4879954;28;105227;-72
2022/12/17 23:30:44;;;;;;;43.67;24.97;;;;;;;-2.29;100.00;97400.53;4876700;28;105061;-72
2022/12/17 23:33:11;;;;;;;40.30;23.90;;;;;;;-2.19;100.00;97406.50;4876256;28;105455;-72
2022/12/17 23:35:38;;;;;;;37.93;22.43;;;;;;;-2.05;100.00;97404.22;4876325;28;101852;-72
2022/12/17 23:38:07;;;;;;;37.53;21.70;;;;;;;-2.14;100.00;97410.28;4872991;28;104843;-72
2022/12/17 23:40:34;;;;;;;36.40;20.43;;;;;;;-2.13;100.00;97405.91;4856907;28;104281;-72
2022/12/17 23:43:01;;;;;;;34.07;19.50;;;;;;;-2.11;100.00;97407.41;4857992;28;101906;-72
2022/12/17 23:45:28;;;;;;;28.77;17.63;;;;;;;-2.15;100.00;97413.88;4857882;28;105311;-72
2022/12/17 23:47:56;;;;;;;33.07;18.83;;;;;;;-2.16;100.00;97404.41;4859200;28;104994;-72
2022/12/17 23:50:23;;;;;;;29.33;17.70;;;;;;;-2.16;100.00;97408.81;4857809;28;105388;-72
2022/12/17 23:52:50;;;;;;;28.50;17.77;;;;;;;-2.26;100.00;97421.06;4855886;28;105322;-72
2022/12/17 23:55:19;;;;;;;28.93;17.50;;;;;;;-2.22;100.00;97418.03;4868797;28;102127;-72
2022/12/17 23:57:46;;;;;;;27.53;17.33;;;;;;;-2.49;100.00;97414.63;4875706;28;105657;-72
